sensor_id;sensor_type;location;lat;lon;timestamp;P1;durP1;ratioP1;P2;durP2;ratioP2
33900;SDS011;20193;49.810;6.418;2022-07-23T00:02:01;14.13;;;13.02;;
33900;SDS011;20193;49.810;6.418;2022-07-23T00:04:27;12.15;;;11.25;;
33900;SDS011;20193;49.810;6.418;2022-07-23T00:06:52;13.13;;;12.05;;
33900;SDS011;20193;49.810;6.418;2022-07-23T00:09:18;12.60;;;11.45;;
33900;SDS011;20193;49.810;6.418;2022-07-23T00:11:44;12.52;;;11.52;;
33900;SDS011;20193;49.810;6.418;2022-07-23T00:14:09;13.25;;;12.10;;
33900;SDS011;20193;49.810;6.418;2022-07-23T00:16:35;13.40;;;12.30;;
33900;SDS011;20193;49.810;6.418;2022-07-23T00:19:01;14.45;;;13.25;;
33900;SDS011;20193;49.810;6.418;2022-07-23T00:21:27;14.95;;;13.32;;
33900;SDS011;20193;49.810;6.418;2022-07-23T00:23:53;13.93;;;12.73;;
33900;SDS011;20193;49.810;6.418;2022-07-23T00:26:18;13.50;;;12.30;;
33900;SDS011;20193;49.810;6.418;2022-07-23T00:28:44;13.30;;;12.23;;
33900;SDS011;20193;49.810;6.418;2022-07-23T00:31:10;13.55;;;12.50;;
33900;SDS011;20193;49.810;6.418;2022-07-23T00:33:35;14.27;;;12.93;;
33900;SDS011;20193;49.810;6.418;2022-07-23T00:36:01;13.57;;;12.38;;
33900;SDS011;20193;49.810;6.418;2022-07-23T00:38:26;15.27;;;13.90;;
33900;SDS011;20193;49.810;6.418;2022-07-23T00:40:52;15.68;;;14.27;;
33900;SDS011;20193;49.810;6.418;2022-07-23T00:43:19;14.20;;;13.05;;
33900;SDS011;20193;49.810;6.418;2022-07-23T00:45:47;12.65;;;11.65;;
33900;SDS011;20193;49.810;6.418;2022-07-23T00:48:12;13.15;;;11.95;;
33900;SDS011;20193;49.810;6.418;2022-07-23T00:50:38;13.32;;;12.10;;
33900;SDS011;20193;49.810;6.418;2022-07-23T00:53:04;14.18;;;12.95;;
33900;SDS011;20193;49.810;6.418;2022-07-23T00:55:30;13.27;;;12.23;;
33900;SDS011;20193;49.810;6.418;2022-07-23T00:57:56;15.15;;;13.93;;
33900;SDS011;20193;49.810;6.418;2022-07-23T01:00:23;14.48;;;13.35;;
33900;SDS011;20193;49.810;6.418;2022-07-23T01:02:49;14.10;;;12.90;;
33900;SDS011;20193;49.810;6.418;2022-07-23T01:05:15;13.35;;;12.10;;
33900;SDS011;20193;49.810;6.418;2022-07-23T01:07:42;14.73;;;13.43;;
33900;SDS011;20193;49.810;6.418;2022-07-23T01:10:08;14.30;;;13.05;;
33900;SDS011;20193;49.810;6.418;2022-07-23T01:12:54;14.32;;;13.02;;
33900;SDS011;20193;49.810;6.418;2022-07-23T01:15:20;14.88;;;13.60;;
33900;SDS011;20193;49.810;6.418;2022-07-23T01:17:46;13.93;;;12.82;;
33900;SDS011;20193;49.810;6.418;2022-07-23T01:20:11;14.65;;;13.35;;
33900;SDS011;20193;49.810;6.418;2022-07-23T01:22:37;14.63;;;13.32;;
33900;SDS011;20193;49.810;6.418;2022-07-23T01:25:03;15.20;;;13.90;;
33900;SDS011;20193;49.810;6.418;2022-07-23T01:27:29;13.80;;;12.80;;
33900;SDS011;20193;49.810;6.418;2022-07-23T01:29:55;14.50;;;13.30;;
33900;SDS011;20193;49.810;6.418;2022-07-23T01:32:24;15.10;;;13.80;;
33900;SDS011;20193;49.810;6.418;2022-07-23T01:34:50;14.43;;;13.32;;
33900;SDS011;20193;49.810;6.418;2022-07-23T01:37:15;14.95;;;13.60;;
33900;SDS011;20193;49.810;6.418;2022-07-23T01:39:41;15.38;;;14.07;;
33900;SDS011;20193;49.810;6.418;2022-07-23T01:42:07;13.98;;;12.77;;
33900;SDS011;20193;49.810;6.418;2022-07-23T01:44:32;14.95;;;13.65;;
33900;SDS011;20193;49.810;6.418;2022-07-23T01:46:58;15.27;;;13.95;;
33900;SDS011;20193;49.810;6.418;2022-07-23T01:49:23;13.45;;;12.35;;
33900;SDS011;20193;49.810;6.418;2022-07-23T01:51:49;14.77;;;13.48;;
33900;SDS011;20193;49.810;6.418;2022-07-23T01:54:27;14.60;;;13.40;;
33900;SDS011;20193;49.810;6.418;2022-07-23T01:56:54;15.68;;;14.27;;
33900;SDS011;20193;49.810;6.418;2022-07-23T01:59:20;15.57;;;14.10;;
33900;SDS011;20193;49.810;6.418;2022-07-23T02:01:46;15.27;;;13.90;;
33900;SDS011;20193;49.810;6.418;2022-07-23T02:04:11;14.95;;;13.65;;
33900;SDS011;20193;49.810;6.418;2022-07-23T02:06:37;15.35;;;13.98;;
33900;SDS011;20193;49.810;6.418;2022-07-23T02:09:03;14.43;;;13.00;;
33900;SDS011;20193;49.810;6.418;2022-07-23T02:11:29;14.88;;;13.68;;
33900;SDS011;20193;49.810;6.418;2022-07-23T02:13:54;15.70;;;14.30;;
33900;SDS011;20193;49.810;6.418;2022-07-23T02:16:20;14.80;;;13.38;;
33900;SDS011;20193;49.810;6.418;2022-07-23T02:18:45;14.23;;;13.13;;
33900;SDS011;20193;49.810;6.418;2022-07-23T02:21:11;14.80;;;13.52;;
33900;SDS011;20193;49.810;6.418;2022-07-23T02:23:37;14.20;;;13.10;;
33900;SDS011;20193;49.810;6.418;2022-07-23T02:26:03;14.02;;;12.73;;
33900;SDS011;20193;49.810;6.418;2022-07-23T02:28:29;14.38;;;12.98;;
33900;SDS011;20193;49.810;6.418;2022-07-23T02:30:54;14.57;;;13.38;;
33900;SDS011;20193;49.810;6.418;2022-07-23T02:33:20;14.77;;;13.43;;
33900;SDS011;20193;49.810;6.418;2022-07-23T02:35:46;14.57;;;13.48;;
33900;SDS011;20193;49.810;6.418;2022-07-23T02:38:11;15.25;;;13.85;;
33900;SDS011;20193;49.810;6.418;2022-07-23T02:40:37;14.32;;;13.13;;
33900;SDS011;20193;49.810;6.418;2022-07-23T02:43:03;14.07;;;13.02;;
33900;SDS011;20193;49.810;6.418;2022-07-23T02:45:29;14.45;;;13.45;;
33900;SDS011;20193;49.810;6.418;2022-07-23T02:47:54;15.25;;;14.05;;
33900;SDS011;20193;49.810;6.418;2022-07-23T02:50:20;15.07;;;13.82;;
33900;SDS011;20193;49.810;6.418;2022-07-23T02:52:46;15.05;;;13.95;;
33900;SDS011;20193;49.810;6.418;2022-07-23T02:55:11;15.25;;;13.95;;
33900;SDS011;20193;49.810;6.418;2022-07-23T02:57:37;14.35;;;13.25;;
33900;SDS011;20193;49.810;6.418;2022-07-23T03:00:04;14.10;;;12.95;;
33900;SDS011;20193;49.810;6.418;2022-07-23T03:02:30;15.95;;;14.75;;
33900;SDS011;20193;49.810;6.418;2022-07-23T03:04:56;16.15;;;14.75;;
33900;SDS011;20193;49.810;6.418;2022-07-23T03:07:22;15.43;;;14.13;;
33900;SDS011;20193;49.810;6.418;2022-07-23T03:09:47;15.70;;;14.50;;
33900;SDS011;20193;49.810;6.418;2022-07-23T03:12:13;15.63;;;14.43;;
33900;SDS011;20193;49.810;6.418;2022-07-23T03:14:39;15.48;;;14.30;;
33900;SDS011;20193;49.810;6.418;2022-07-23T03:17:05;15.52;;;14.32;;
33900;SDS011;20193;49.810;6.418;2022-07-23T03:19:31;15.07;;;13.80;;
33900;SDS011;20193;49.810;6.418;2022-07-23T03:21:57;15.93;;;14.73;;
33900;SDS011;20193;49.810;6.418;2022-07-23T03:24:22;15.85;;;14.57;;
33900;SDS011;20193;49.810;6.418;2022-07-23T03:27:08;15.60;;;14.30;;
33900;SDS011;20193;49.810;6.418;2022-07-23T03:29:34;15.77;;;14.57;;
33900;SDS011;20193;49.810;6.418;2022-07-23T03:31:59;16.40;;;15.10;;
33900;SDS011;20193;49.810;6.418;2022-07-23T03:34:25;16.65;;;15.05;;
33900;SDS011;20193;49.810;6.418;2022-07-23T03:36:50;14.57;;;13.50;;
33900;SDS011;20193;49.810;6.418;2022-07-23T03:39:16;16.10;;;14.60;;
33900;SDS011;20193;49.810;6.418;2022-07-23T03:41:42;16.00;;;14.68;;
33900;SDS011;20193;49.810;6.418;2022-07-23T03:44:07;16.40;;;15.13;;
33900;SDS011;20193;49.810;6.418;2022-07-23T03:46:33;17.65;;;16.25;;
33900;SDS011;20193;49.810;6.418;2022-07-23T03:48:58;16.00;;;14.70;;
33900;SDS011;20193;49.810;6.418;2022-07-23T03:51:24;17.95;;;16.42;;
33900;SDS011;20193;49.810;6.418;2022-07-23T03:53:49;17.70;;;16.20;;
33900;SDS011;20193;49.810;6.418;2022-07-23T03:56:15;17.48;;;16.08;;
33900;SDS011;20193;49.810;6.418;2022-07-23T03:58:41;18.42;;;16.67;;
33900;SDS011;20193;49.810;6.418;2022-07-23T04:01:06;17.65;;;16.15;;
33900;SDS011;20193;49.810;6.418;2022-07-23T04:03:32;17.90;;;16.48;;
33900;SDS011;20193;49.810;6.418;2022-07-23T04:05:57;17.88;;;16.38;;
33900;SDS011;20193;49.810;6.418;2022-07-23T04:08:23;17.95;;;16.33;;
33900;SDS011;20193;49.810;6.418;2022-07-23T04:10:50;17.20;;;15.70;;
33900;SDS011;20193;49.810;6.418;2022-07-23T04:13:15;17.27;;;15.88;;
33900;SDS011;20193;49.810;6.418;2022-07-23T04:15:41;17.20;;;15.77;;
33900;SDS011;20193;49.810;6.418;2022-07-23T04:18:07;16.92;;;15.63;;
33900;SDS011;20193;49.810;6.418;2022-07-23T04:20:33;17.38;;;15.88;;
33900;SDS011;20193;49.810;6.418;2022-07-23T04:22:58;18.95;;;17.30;;
33900;SDS011;20193;49.810;6.418;2022-07-23T04:25:24;17.65;;;16.33;;
33900;SDS011;20193;49.810;6.418;2022-07-23T04:27:50;18.20;;;16.83;;
33900;SDS011;20193;49.810;6.418;2022-07-23T04:30:15;16.63;;;15.18;;
33900;SDS011;20193;49.810;6.418;2022-07-23T04:32:41;18.52;;;17.13;;
33900;SDS011;20193;49.810;6.418;2022-07-23T04:35:06;17.38;;;16.05;;
33900;SDS011;20193;49.810;6.418;2022-07-23T04:37:32;17.77;;;16.30;;
33900;SDS011;20193;49.810;6.418;2022-07-23T04:39:59;17.75;;;16.20;;
33900;SDS011;20193;49.810;6.418;2022-07-23T04:42:25;17.95;;;16.52;;
33900;SDS011;20193;49.810;6.418;2022-07-23T04:44:51;17.38;;;16.08;;
33900;SDS011;20193;49.810;6.418;2022-07-23T04:47:16;17.40;;;16.02;;
33900;SDS011;20193;49.810;6.418;2022-07-23T04:49:42;17.30;;;15.80;;
33900;SDS011;20193;49.810;6.418;2022-07-23T04:52:07;17.13;;;15.73;;
33900;SDS011;20193;49.810;6.418;2022-07-23T04:54:33;18.02;;;16.73;;
33900;SDS011;20193;49.810;6.418;2022-07-23T04:56:59;19.52;;;17.75;;
33900;SDS011;20193;49.810;6.418;2022-07-23T04:59:24;18.33;;;16.85;;
33900;SDS011;20193;49.810;6.418;2022-07-23T05:01:50;19.23;;;17.63;;
33900;SDS011;20193;49.810;6.418;2022-07-23T05:04:15;18.85;;;17.35;;
33900;SDS011;20193;49.810;6.418;2022-07-23T05:06:41;17.20;;;15.80;;
33900;SDS011;20193;49.810;6.418;2022-07-23T05:09:07;18.75;;;17.08;;
33900;SDS011;20193;49.810;6.418;2022-07-23T05:11:32;18.45;;;16.98;;
33900;SDS011;20193;49.810;6.418;2022-07-23T05:13:58;18.90;;;17.40;;
33900;SDS011;20193;49.810;6.418;2022-07-23T05:16:23;18.02;;;16.48;;
33900;SDS011;20193;49.810;6.418;2022-07-23T05:18:49;17.58;;;16.17;;
33900;SDS011;20193;49.810;6.418;2022-07-23T05:21:15;18.02;;;16.52;;
33900;SDS011;20193;49.810;6.418;2022-07-23T05:23:40;18.65;;;17.25;;
33900;SDS011;20193;49.810;6.418;2022-07-23T05:26:06;16.98;;;15.48;;
33900;SDS011;20193;49.810;6.418;2022-07-23T05:28:31;18.50;;;17.00;;
33900;SDS011;20193;49.810;6.418;2022-07-23T05:30:57;18.92;;;17.17;;
33900;SDS011;20193;49.810;6.418;2022-07-23T05:33:22;17.48;;;16.08;;
33900;SDS011;20193;49.810;6.418;2022-07-23T05:35:48;17.52;;;16.23;;
33900;SDS011;20193;49.810;6.418;2022-07-23T05:38:14;18.73;;;17.02;;
33900;SDS011;20193;49.810;6.418;2022-07-23T05:40:40;17.73;;;16.23;;
33900;SDS011;20193;49.810;6.418;2022-07-23T05:43:05;19.05;;;17.25;;
33900;SDS011;20193;49.810;6.418;2022-07-23T05:45:31;18.10;;;16.27;;
33900;SDS011;20193;49.810;6.418;2022-07-23T05:47:56;17.23;;;15.77;;
33900;SDS011;20193;49.810;6.418;2022-07-23T05:50:22;17.23;;;15.73;;
33900;SDS011;20193;49.810;6.418;2022-07-23T05:52:48;19.58;;;17.80;;
33900;SDS011;20193;49.810;6.418;2022-07-23T05:55:13;17.48;;;16.08;;
33900;SDS011;20193;49.810;6.418;2022-07-23T05:57:39;17.02;;;15.65;;
33900;SDS011;20193;49.810;6.418;2022-07-23T06:00:06;17.75;;;14.45;;
33900;SDS011;20193;49.810;6.418;2022-07-23T06:02:33;17.90;;;16.40;;
33900;SDS011;20193;49.810;6.418;2022-07-23T06:04:58;16.92;;;15.52;;
33900;SDS011;20193;49.810;6.418;2022-07-23T06:07:24;16.67;;;15.25;;
33900;SDS011;20193;49.810;6.418;2022-07-23T06:09:50;21.13;;;19.02;;
33900;SDS011;20193;49.810;6.418;2022-07-23T06:12:16;18.88;;;17.02;;
33900;SDS011;20193;49.810;6.418;2022-07-23T06:14:42;16.90;;;15.20;;
33900;SDS011;20193;49.810;6.418;2022-07-23T06:17:08;15.73;;;14.20;;
33900;SDS011;20193;49.810;6.418;2022-07-23T06:19:34;17.10;;;15.18;;
33900;SDS011;20193;49.810;6.418;2022-07-23T06:22:00;16.88;;;15.38;;
33900;SDS011;20193;49.810;6.418;2022-07-23T06:24:25;16.42;;;15.02;;
33900;SDS011;20193;49.810;6.418;2022-07-23T06:26:51;16.40;;;15.00;;
33900;SDS011;20193;49.810;6.418;2022-07-23T06:29:16;15.80;;;14.45;;
33900;SDS011;20193;49.810;6.418;2022-07-23T06:31:42;18.75;;;17.05;;
33900;SDS011;20193;49.810;6.418;2022-07-23T06:34:08;16.42;;;14.98;;
33900;SDS011;20193;49.810;6.418;2022-07-23T06:36:33;16.60;;;15.07;;
33900;SDS011;20193;49.810;6.418;2022-07-23T06:38:59;16.10;;;14.60;;
33900;SDS011;20193;49.810;6.418;2022-07-23T06:41:24;16.02;;;14.73;;
33900;SDS011;20193;49.810;6.418;2022-07-23T06:43:50;16.00;;;14.60;;
33900;SDS011;20193;49.810;6.418;2022-07-23T06:46:16;15.43;;;14.13;;
33900;SDS011;20193;49.810;6.418;2022-07-23T06:48:42;15.48;;;14.23;;
33900;SDS011;20193;49.810;6.418;2022-07-23T06:51:07;16.75;;;15.20;;
33900;SDS011;20193;49.810;6.418;2022-07-23T06:53:33;19.88;;;14.82;;
33900;SDS011;20193;49.810;6.418;2022-07-23T06:55:58;17.13;;;15.32;;
33900;SDS011;20193;49.810;6.418;2022-07-23T06:58:27;17.23;;;15.68;;
33900;SDS011;20193;49.810;6.418;2022-07-23T07:00:53;16.48;;;15.07;;
33900;SDS011;20193;49.810;6.418;2022-07-23T07:03:19;16.42;;;14.10;;
33900;SDS011;20193;49.810;6.418;2022-07-23T07:05:45;15.48;;;14.07;;
33900;SDS011;20193;49.810;6.418;2022-07-23T07:08:10;15.93;;;14.15;;
33900;SDS011;20193;49.810;6.418;2022-07-23T07:10:37;15.25;;;13.85;;
33900;SDS011;20193;49.810;6.418;2022-07-23T07:13:02;14.98;;;13.65;;
33900;SDS011;20193;49.810;6.418;2022-07-23T07:15:28;14.80;;;13.50;;
33900;SDS011;20193;49.810;6.418;2022-07-23T07:17:53;14.55;;;13.18;;
33900;SDS011;20193;49.810;6.418;2022-07-23T07:20:19;15.43;;;14.10;;
33900;SDS011;20193;49.810;6.418;2022-07-23T07:22:45;15.00;;;13.60;;
33900;SDS011;20193;49.810;6.418;2022-07-23T07:25:10;15.27;;;14.07;;
33900;SDS011;20193;49.810;6.418;2022-07-23T07:27:36;14.85;;;13.57;;
33900;SDS011;20193;49.810;6.418;2022-07-23T07:30:03;12.50;;;11.40;;
33900;SDS011;20193;49.810;6.418;2022-07-23T07:32:29;14.13;;;12.70;;
33900;SDS011;20193;49.810;6.418;2022-07-23T07:34:57;13.43;;;12.23;;
33900;SDS011;20193;49.810;6.418;2022-07-23T07:37:23;13.45;;;12.25;;
33900;SDS011;20193;49.810;6.418;2022-07-23T07:39:48;13.75;;;11.60;;
33900;SDS011;20193;49.810;6.418;2022-07-23T07:42:14;12.18;;;11.23;;
33900;SDS011;20193;49.810;6.418;2022-07-23T07:44:40;13.70;;;11.45;;
33900;SDS011;20193;49.810;6.418;2022-07-23T07:47:06;11.95;;;10.85;;
33900;SDS011;20193;49.810;6.418;2022-07-23T07:49:35;12.18;;;11.27;;
33900;SDS011;20193;49.810;6.418;2022-07-23T07:52:02;12.10;;;11.07;;
33900;SDS011;20193;49.810;6.418;2022-07-23T07:54:28;10.55;;;9.75;;
33900;SDS011;20193;49.810;6.418;2022-07-23T07:56:53;10.18;;;9.38;;
33900;SDS011;20193;49.810;6.418;2022-07-23T07:59:22;11.68;;;10.02;;
33900;SDS011;20193;49.810;6.418;2022-07-23T08:01:47;11.32;;;10.15;;
33900;SDS011;20193;49.810;6.418;2022-07-23T08:04:13;11.23;;;10.13;;
33900;SDS011;20193;49.810;6.418;2022-07-23T08:06:39;11.05;;;9.98;;
33900;SDS011;20193;49.810;6.418;2022-07-23T08:09:04;11.88;;;10.88;;
33900;SDS011;20193;49.810;6.418;2022-07-23T08:11:30;11.65;;;10.55;;
33900;SDS011;20193;49.810;6.418;2022-07-23T08:13:55;11.63;;;10.73;;
33900;SDS011;20193;49.810;6.418;2022-07-23T08:16:21;11.23;;;10.23;;
33900;SDS011;20193;49.810;6.418;2022-07-23T08:18:47;11.40;;;10.30;;
33900;SDS011;20193;49.810;6.418;2022-07-23T08:21:12;12.45;;;10.40;;
33900;SDS011;20193;49.810;6.418;2022-07-23T08:23:38;11.35;;;10.35;;
33900;SDS011;20193;49.810;6.418;2022-07-23T08:26:04;10.30;;;9.40;;
33900;SDS011;20193;49.810;6.418;2022-07-23T08:28:29;11.55;;;10.68;;
33900;SDS011;20193;49.810;6.418;2022-07-23T08:30:58;10.82;;;10.00;;
33900;SDS011;20193;49.810;6.418;2022-07-23T08:33:24;10.60;;;9.70;;
33900;SDS011;20193;49.810;6.418;2022-07-23T08:35:50;11.20;;;10.23;;
33900;SDS011;20193;49.810;6.418;2022-07-23T08:38:18;10.63;;;9.45;;
33900;SDS011;20193;49.810;6.418;2022-07-23T08:40:47;11.65;;;10.65;;
33900;SDS011;20193;49.810;6.418;2022-07-23T08:43:17;11.35;;;10.35;;
33900;SDS011;20193;49.810;6.418;2022-07-23T08:45:46;11.68;;;10.68;;
33900;SDS011;20193;49.810;6.418;2022-07-23T08:48:13;10.55;;;9.57;;
33900;SDS011;20193;49.810;6.418;2022-07-23T08:50:45;10.85;;;9.68;;
33900;SDS011;20193;49.810;6.418;2022-07-23T08:53:13;10.68;;;9.68;;
33900;SDS011;20193;49.810;6.418;2022-07-23T08:55:43;10.02;;;9.23;;
33900;SDS011;20193;49.810;6.418;2022-07-23T08:58:12;9.20;;;8.50;;
33900;SDS011;20193;49.810;6.418;2022-07-23T09:00:38;9.75;;;8.77;;
33900;SDS011;20193;49.810;6.418;2022-07-23T09:03:04;10.05;;;9.15;;
33900;SDS011;20193;49.810;6.418;2022-07-23T09:05:29;9.02;;;8.32;;
33900;SDS011;20193;49.810;6.418;2022-07-23T09:08:12;9.35;;;8.55;;
33900;SDS011;20193;49.810;6.418;2022-07-23T09:10:46;10.00;;;9.05;;
33900;SDS011;20193;49.810;6.418;2022-07-23T09:15:52;11.13;;;9.93;;
33900;SDS011;20193;49.810;6.418;2022-07-23T09:18:19;10.43;;;9.63;;
33900;SDS011;20193;49.810;6.418;2022-07-23T09:20:56;10.55;;;9.65;;
33900;SDS011;20193;49.810;6.418;2022-07-23T09:23:39;10.00;;;9.10;;
33900;SDS011;20193;49.810;6.418;2022-07-23T09:26:33;11.68;;;10.75;;
33900;SDS011;20193;49.810;6.418;2022-07-23T09:29:15;9.82;;;9.13;;
33900;SDS011;20193;49.810;6.418;2022-07-23T09:31:58;10.27;;;9.30;;
33900;SDS011;20193;49.810;6.418;2022-07-23T09:34:30;9.23;;;8.48;;
33900;SDS011;20193;49.810;6.418;2022-07-23T09:39:43;9.82;;;9.02;;
33900;SDS011;20193;49.810;6.418;2022-07-23T09:44:45;9.50;;;8.70;;
33900;SDS011;20193;49.810;6.418;2022-07-23T09:47:12;9.63;;;8.82;;
33900;SDS011;20193;49.810;6.418;2022-07-23T09:49:38;9.45;;;8.65;;
33900;SDS011;20193;49.810;6.418;2022-07-23T09:52:04;9.00;;;8.30;;
33900;SDS011;20193;49.810;6.418;2022-07-23T09:54:34;10.05;;;9.23;;
33900;SDS011;20193;49.810;6.418;2022-07-23T09:57:04;10.18;;;9.38;;
33900;SDS011;20193;49.810;6.418;2022-07-23T09:59:35;10.38;;;9.55;;
33900;SDS011;20193;49.810;6.418;2022-07-23T10:02:02;9.30;;;8.63;;
33900;SDS011;20193;49.810;6.418;2022-07-23T10:04:31;10.15;;;9.18;;
33900;SDS011;20193;49.810;6.418;2022-07-23T10:06:59;9.60;;;8.88;;
33900;SDS011;20193;49.810;6.418;2022-07-23T10:09:32;9.90;;;8.98;;
33900;SDS011;20193;49.810;6.418;2022-07-23T10:12:00;10.27;;;9.40;;
33900;SDS011;20193;49.810;6.418;2022-07-23T10:14:30;11.00;;;9.40;;
33900;SDS011;20193;49.810;6.418;2022-07-23T10:16:58;10.13;;;9.32;;
33900;SDS011;20193;49.810;6.418;2022-07-23T10:19:24;10.55;;;9.60;;
33900;SDS011;20193;49.810;6.418;2022-07-23T10:21:51;10.18;;;9.40;;
33900;SDS011;20193;49.810;6.418;2022-07-23T10:32:04;10.32;;;9.38;;
33900;SDS011;20193;49.810;6.418;2022-07-23T10:37:22;9.55;;;8.75;;
33900;SDS011;20193;49.810;6.418;2022-07-23T10:40:09;9.52;;;8.60;;
33900;SDS011;20193;49.810;6.418;2022-07-23T10:42:47;10.25;;;9.35;;
33900;SDS011;20193;49.810;6.418;2022-07-23T10:45:30;9.15;;;8.45;;
33900;SDS011;20193;49.810;6.418;2022-07-23T10:48:11;8.70;;;8.00;;
33900;SDS011;20193;49.810;6.418;2022-07-23T10:50:42;8.73;;;8.02;;
33900;SDS011;20193;49.810;6.418;2022-07-23T10:53:15;9.90;;;9.13;;
33900;SDS011;20193;49.810;6.418;2022-07-23T10:55:49;10.20;;;8.65;;
33900;SDS011;20193;49.810;6.418;2022-07-23T10:58:21;8.68;;;8.05;;
33900;SDS011;20193;49.810;6.418;2022-07-23T11:00:48;9.18;;;8.48;;
33900;SDS011;20193;49.810;6.418;2022-07-23T11:03:31;8.80;;;8.00;;
33900;SDS011;20193;49.810;6.418;2022-07-23T11:06:01;9.45;;;8.73;;
33900;SDS011;20193;49.810;6.418;2022-07-23T11:08:26;9.07;;;8.38;;
33900;SDS011;20193;49.810;6.418;2022-07-23T11:10:53;8.63;;;8.02;;
33900;SDS011;20193;49.810;6.418;2022-07-23T11:21:51;9.00;;;8.20;;
33900;SDS011;20193;49.810;6.418;2022-07-23T11:31:57;8.85;;;8.25;;
33900;SDS011;20193;49.810;6.418;2022-07-23T11:34:58;9.07;;;8.25;;
33900;SDS011;20193;49.810;6.418;2022-07-23T11:37:39;9.07;;;8.20;;
33900;SDS011;20193;49.810;6.418;2022-07-23T11:40:09;8.25;;;7.60;;
33900;SDS011;20193;49.810;6.418;2022-07-23T11:42:40;9.20;;;8.38;;
33900;SDS011;20193;49.810;6.418;2022-07-23T11:45:24;8.55;;;7.95;;
33900;SDS011;20193;49.810;6.418;2022-07-23T11:47:54;8.73;;;8.02;;
33900;SDS011;20193;49.810;6.418;2022-07-23T11:50:22;9.20;;;8.23;;
33900;SDS011;20193;49.810;6.418;2022-07-23T11:52:50;9.75;;;8.85;;
33900;SDS011;20193;49.810;6.418;2022-07-23T11:55:16;9.48;;;8.70;;
33900;SDS011;20193;49.810;6.418;2022-07-23T11:57:41;9.40;;;8.55;;
33900;SDS011;20193;49.810;6.418;2022-07-23T12:00:10;9.32;;;8.52;;
33900;SDS011;20193;49.810;6.418;2022-07-23T12:02:48;9.50;;;8.52;;
33900;SDS011;20193;49.810;6.418;2022-07-23T12:05:20;11.63;;;9.50;;
33900;SDS011;20193;49.810;6.418;2022-07-23T12:07:51;8.27;;;7.68;;
33900;SDS011;20193;49.810;6.418;2022-07-23T12:10:20;9.55;;;8.85;;
33900;SDS011;20193;49.810;6.418;2022-07-23T12:13:16;8.98;;;8.27;;
33900;SDS011;20193;49.810;6.418;2022-07-23T12:15:53;10.07;;;9.02;;
33900;SDS011;20193;49.810;6.418;2022-07-23T12:18:22;9.45;;;8.65;;
33900;SDS011;20193;49.810;6.418;2022-07-23T12:20:50;9.57;;;8.85;;
33900;SDS011;20193;49.810;6.418;2022-07-23T12:23:18;9.35;;;8.52;;
33900;SDS011;20193;49.810;6.418;2022-07-23T12:25:45;9.35;;;8.40;;
33900;SDS011;20193;49.810;6.418;2022-07-23T12:28:19;9.77;;;8.98;;
33900;SDS011;20193;49.810;6.418;2022-07-23T12:30:54;10.60;;;8.93;;
33900;SDS011;20193;49.810;6.418;2022-07-23T12:33:25;9.63;;;8.68;;
33900;SDS011;20193;49.810;6.418;2022-07-23T12:35:54;9.10;;;8.40;;
33900;SDS011;20193;49.810;6.418;2022-07-23T12:38:21;9.02;;;8.35;;
33900;SDS011;20193;49.810;6.418;2022-07-23T12:40:52;9.02;;;8.23;;
33900;SDS011;20193;49.810;6.418;2022-07-23T12:43:23;8.60;;;7.90;;
33900;SDS011;20193;49.810;6.418;2022-07-23T12:48:33;10.13;;;9.30;;
33900;SDS011;20193;49.810;6.418;2022-07-23T12:51:14;9.40;;;8.70;;
33900;SDS011;20193;49.810;6.418;2022-07-23T12:53:43;8.73;;;8.13;;
33900;SDS011;20193;49.810;6.418;2022-07-23T12:56:11;9.60;;;8.75;;
33900;SDS011;20193;49.810;6.418;2022-07-23T12:58:55;9.85;;;9.10;;
33900;SDS011;20193;49.810;6.418;2022-07-23T13:01:26;11.25;;;9.52;;
33900;SDS011;20193;49.810;6.418;2022-07-23T13:06:22;9.82;;;9.02;;
33900;SDS011;20193;49.810;6.418;2022-07-23T13:08:48;9.30;;;8.60;;
33900;SDS011;20193;49.810;6.418;2022-07-23T13:11:14;8.80;;;8.20;;
33900;SDS011;20193;49.810;6.418;2022-07-23T13:13:39;9.02;;;8.27;;
33900;SDS011;20193;49.810;6.418;2022-07-23T13:16:06;8.60;;;8.00;;
33900;SDS011;20193;49.810;6.418;2022-07-23T13:18:32;9.70;;;8.73;;
33900;SDS011;20193;49.810;6.418;2022-07-23T13:20:58;9.55;;;8.60;;
33900;SDS011;20193;49.810;6.418;2022-07-23T13:23:24;8.40;;;7.90;;
33900;SDS011;20193;49.810;6.418;2022-07-23T13:25:50;8.25;;;7.65;;
33900;SDS011;20193;49.810;6.418;2022-07-23T13:28:17;9.13;;;8.43;;
33900;SDS011;20193;49.810;6.418;2022-07-23T13:30:44;9.65;;;8.73;;
33900;SDS011;20193;49.810;6.418;2022-07-23T13:33:11;9.50;;;8.60;;
33900;SDS011;20193;49.810;6.418;2022-07-23T13:35:37;9.65;;;8.85;;
33900;SDS011;20193;49.810;6.418;2022-07-23T13:38:03;9.02;;;8.30;;
33900;SDS011;20193;49.810;6.418;2022-07-23T13:40:32;9.75;;;8.82;;
33900;SDS011;20193;49.810;6.418;2022-07-23T13:42:59;9.13;;;8.43;;
33900;SDS011;20193;49.810;6.418;2022-07-23T13:45:25;9.27;;;8.50;;
33900;SDS011;20193;49.810;6.418;2022-07-23T13:47:50;9.15;;;8.45;;
33900;SDS011;20193;49.810;6.418;2022-07-23T13:50:16;8.82;;;8.13;;
33900;SDS011;20193;49.810;6.418;2022-07-23T13:52:42;10.02;;;9.15;;
33900;SDS011;20193;49.810;6.418;2022-07-23T13:55:08;9.43;;;8.70;;
33900;SDS011;20193;49.810;6.418;2022-07-23T13:57:34;9.75;;;8.93;;
33900;SDS011;20193;49.810;6.418;2022-07-23T13:59:59;10.05;;;9.18;;
33900;SDS011;20193;49.810;6.418;2022-07-23T14:02:25;10.05;;;9.10;;
33900;SDS011;20193;49.810;6.418;2022-07-23T14:04:51;10.80;;;10.00;;
33900;SDS011;20193;49.810;6.418;2022-07-23T14:07:17;9.55;;;8.75;;
33900;SDS011;20193;49.810;6.418;2022-07-23T14:09:43;10.25;;;9.45;;
33900;SDS011;20193;49.810;6.418;2022-07-23T14:12:09;10.57;;;9.68;;
33900;SDS011;20193;49.810;6.418;2022-07-23T14:14:35;9.25;;;8.45;;
33900;SDS011;20193;49.810;6.418;2022-07-23T14:17:01;9.90;;;8.98;;
33900;SDS011;20193;49.810;6.418;2022-07-23T14:19:30;9.70;;;8.98;;
33900;SDS011;20193;49.810;6.418;2022-07-23T14:21:56;9.55;;;8.60;;
33900;SDS011;20193;49.810;6.418;2022-07-23T14:24:22;10.35;;;9.50;;
33900;SDS011;20193;49.810;6.418;2022-07-23T14:26:47;10.13;;;9.27;;
33900;SDS011;20193;49.810;6.418;2022-07-23T14:29:13;8.73;;;8.02;;
33900;SDS011;20193;49.810;6.418;2022-07-23T14:31:39;9.05;;;8.45;;
33900;SDS011;20193;49.810;6.418;2022-07-23T14:34:05;9.02;;;7.88;;
33900;SDS011;20193;49.810;6.418;2022-07-23T14:36:30;8.50;;;7.80;;
33900;SDS011;20193;49.810;6.418;2022-07-23T14:38:58;9.43;;;8.57;;
33900;SDS011;20193;49.810;6.418;2022-07-23T14:41:25;9.82;;;8.93;;
33900;SDS011;20193;49.810;6.418;2022-07-23T14:43:50;10.63;;;9.60;;
33900;SDS011;20193;49.810;6.418;2022-07-23T14:46:16;10.57;;;9.20;;
33900;SDS011;20193;49.810;6.418;2022-07-23T14:48:42;9.10;;;8.40;;
33900;SDS011;20193;49.810;6.418;2022-07-23T14:51:07;9.82;;;8.82;;
33900;SDS011;20193;49.810;6.418;2022-07-23T14:53:33;9.90;;;8.90;;
33900;SDS011;20193;49.810;6.418;2022-07-23T14:55:59;9.90;;;9.15;;
33900;SDS011;20193;49.810;6.418;2022-07-23T14:58:25;9.68;;;8.88;;
33900;SDS011;20193;49.810;6.418;2022-07-23T15:00:51;8.90;;;8.00;;
33900;SDS011;20193;49.810;6.418;2022-07-23T15:03:16;8.77;;;8.13;;
33900;SDS011;20193;49.810;6.418;2022-07-23T15:05:42;9.63;;;8.82;;
33900;SDS011;20193;49.810;6.418;2022-07-23T15:08:08;8.20;;;7.53;;
33900;SDS011;20193;49.810;6.418;2022-07-23T15:10:34;9.02;;;8.32;;
33900;SDS011;20193;49.810;6.418;2022-07-23T15:13:00;9.07;;;8.35;;